Time;durP1;ratioP1;P1;durP2;ratioP2;P2;SDS_P1;SDS_P2;PMS_P1;PMS_P2;Temp;Humidity;BMP_temperature;BMP_pressure;BME280_temperature;BME280_humidity;BME280_pressure;Samples;Min_cycle;Max_cycle;Signal;HPM_P1;HPM_P2
2021/05/14 00:02:41;;;;;;;35.88;25.23;;;;;;;13.57;72.79;97226.33;2178880;81;21049;-78
2021/05/14 00:05:42;;;;;;;28.38;21.65;;;;;;;13.59;72.79;97235.02;2179091;81;21018;-79
2021/05/14 00:08:43;;;;;;;31.10;23.57;;;;;;;13.56;72.73;97239.02;2179268;82;20986;-80
2021/05/14 00:11:44;;;;;;;30.25;25.17;;;;;;;13.57;72.87;97241.61;2178968;82;20942;-78
2021/05/14 00:14:45;;;;;;;28.32;24.52;;;;;;;13.59;73.08;97236.33;2179190;81;20981;-80
2021/05/14 00:17:45;;;;;;;29.32;25.30;;;;;;;13.60;73.09;97228.87;2179258;82;20918;-79
2021/05/14 00:20:47;;;;;;;29.25;23.75;;;;;;;13.59;73.29;97232.39;2179204;81;21037;-78
2021/05/14 00:23:48;;;;;;;31.93;25.20;;;;;;;13.58;73.30;97227.59;2178867;82;20950;-79
2021/05/14 00:26:49;;;;;;;30.55;25.68;;;;;;;13.59;73.27;97225.39;2178959;82;20966;-79
2021/05/14 00:29:49;;;;;;;37.00;26.62;;;;;;;13.60;73.27;97221.86;2178911;82;20906;-79
2021/05/14 00:32:50;;;;;;;35.17;27.07;;;;;;;13.61;73.40;97226.66;2178874;82;20946;-79
2021/05/14 00:35:51;;;;;;;49.00;36.83;;;;;;;13.60;73.75;97223.62;2178866;82;20930;-79
2021/05/14 00:38:52;;;;;;;54.33;41.00;;;;;;;13.55;73.89;97228.13;2178991;81;20926;-79
2021/05/14 00:41:53;;;;;;;51.65;41.92;;;;;;;13.54;73.79;97222.47;2178877;81;20914;-79
2021/05/14 00:44:54;;;;;;;44.83;36.85;;;;;;;13.51;74.14;97227.80;2179044;81;20958;-79
2021/05/14 00:47:55;;;;;;;48.87;35.75;;;;;;;13.47;74.15;97222.22;2179046;81;20949;-79
2021/05/14 00:50:56;;;;;;;45.78;36.90;;;;;;;13.38;74.23;97228.10;2172752;81;21018;-80
2021/05/14 00:53:57;;;;;;;37.05;31.30;;;;;;;13.35;74.26;97220.31;2161836;82;21267;-80
2021/05/14 00:56:58;;;;;;;33.55;27.27;;;;;;;13.30;74.31;97223.95;2161536;82;20923;-79
2021/05/14 00:59:59;;;;;;;33.55;26.17;;;;;;;13.25;74.36;97230.61;2161869;82;21003;-79
2021/05/14 01:03:00;;;;;;;32.50;26.17;;;;;;;13.20;74.70;97232.94;2161649;82;21094;-79
2021/05/14 01:06:01;;;;;;;31.80;24.67;;;;;;;13.16;74.88;97226.02;2161729;82;21291;-79
2021/05/14 01:09:02;;;;;;;33.90;25.82;;;;;;;13.09;74.65;97227.92;2161895;82;21022;-79
2021/05/14 01:12:03;;;;;;;48.05;38.30;;;;;;;12.99;74.78;97231.63;2161686;82;21307;-79
2021/05/14 01:15:04;;;;;;;39.70;34.48;;;;;;;12.90;74.54;97228.77;2161615;82;21353;-79
2021/05/14 01:18:05;;;;;;;48.90;36.23;;;;;;;12.88;74.60;97227.94;2161654;82;20957;-80
2021/05/14 01:21:06;;;;;;;40.67;29.98;;;;;;;12.85;74.81;97225.84;2161642;82;21085;-79
2021/05/14 01:24:07;;;;;;;41.73;35.00;;;;;;;12.79;74.71;97228.59;2161536;82;20938;-80
2021/05/14 01:27:09;;;;;;;35.55;28.25;;;;;;;12.71;74.65;97227.46;2161523;82;21438;-79
2021/05/14 01:30:09;;;;;;;36.85;27.15;;;;;;;12.64;74.79;97233.73;2161437;82;20915;-79
2021/05/14 01:33:10;;;;;;;39.58;31.97;;;;;;;12.61;74.82;97231.18;2161440;82;21359;-80
2021/05/14 01:36:11;;;;;;;52.38;41.42;;;;;;;12.56;75.03;97220.81;2161542;82;20923;-79
2021/05/14 01:39:12;;;;;;;57.30;41.68;;;;;;;12.60;74.90;97236.86;2161449;82;20950;-79
2021/05/14 01:42:13;;;;;;;43.55;34.18;;;;;;;12.55;74.82;97230.86;2161387;82;21280;-79
2021/05/14 01:45:14;;;;;;;40.85;34.05;;;;;;;12.54;74.77;97230.90;2161425;82;21311;-79
2021/05/14 01:48:15;;;;;;;56.75;42.70;;;;;;;12.49;74.75;97240.61;2161594;82;20947;-79
2021/05/14 01:51:17;;;;;;;57.48;43.63;;;;;;;12.48;74.79;97242.36;2161397;82;21126;-79
2021/05/14 01:54:18;;;;;;;34.60;29.25;;;;;;;12.49;74.82;97238.84;2161551;82;21439;-79
2021/05/14 01:57:20;;;;;;;38.88;28.70;;;;;;;12.48;74.61;97238.44;2161667;82;21368;-80
2021/05/14 02:00:20;;;;;;;31.82;23.50;;;;;;;12.47;74.57;97243.25;2161417;82;20945;-78
2021/05/14 02:03:21;;;;;;;40.33;29.40;;;;;;;12.46;74.46;97244.59;2161382;82;20983;-79
2021/05/14 02:06:22;;;;;;;43.92;34.70;;;;;;;12.45;74.36;97239.80;2161614;82;20974;-79
2021/05/14 02:09:24;;;;;;;49.03;39.45;;;;;;;12.41;74.17;97252.54;2161837;82;20986;-79
2021/05/14 02:12:24;;;;;;;52.30;39.05;;;;;;;12.37;74.15;97254.80;2161699;82;21327;-79
2021/05/14 02:15:25;;;;;;;25.35;22.65;;;;;;;12.38;74.05;97252.60;2161845;82;20998;-80
2021/05/14 02:18:26;;;;;;;25.12;19.70;;;;;;;12.32;74.16;97257.96;2161868;82;20955;-79
2021/05/14 02:21:28;;;;;;;26.27;21.42;;;;;;;12.18;73.97;97256.07;2162018;82;21030;-79
2021/05/14 02:24:28;;;;;;;24.02;18.75;;;;;;;12.08;73.92;97253.59;2162114;82;20931;-79
2021/05/14 02:27:30;;;;;;;24.37;19.90;;;;;;;12.04;74.05;97248.02;2162245;82;21010;-80
2021/05/14 02:30:31;;;;;;;25.17;20.48;;;;;;;12.00;74.41;97258.12;2161680;82;21026;-77
2021/05/14 02:33:32;;;;;;;26.68;20.62;;;;;;;11.94;73.93;97261.30;2161599;82;20907;-80
2021/05/14 02:36:32;;;;;;;26.70;21.35;;;;;;;11.82;74.39;97263.69;2161693;82;20951;-80
2021/05/14 02:39:34;;;;;;;32.05;22.22;;;;;;;11.73;74.59;97270.36;2161729;82;21279;-79
2021/05/14 02:42:35;;;;;;;26.33;21.87;;;;;;;11.67;74.96;97271.77;2161673;82;20950;-80
2021/05/14 02:45:36;;;;;;;32.60;25.20;;;;;;;11.62;74.93;97268.38;2161865;82;21347;-79
2021/05/14 02:48:36;;;;;;;34.20;25.37;;;;;;;11.64;75.48;97270.52;2161628;82;20923;-80
2021/05/14 02:51:38;;;;;;;39.97;26.77;;;;;;;11.68;75.71;97270.88;2161845;82;21407;-80
2021/05/14 02:54:38;;;;;;;43.57;30.67;;;;;;;11.66;76.46;97272.66;2161618;82;20946;-79
2021/05/14 02:57:43;;;;;;;55.52;38.73;;;;;;;11.65;76.34;97277.03;2161999;82;21339;-79
2021/05/14 03:00:44;;;;;;;56.73;36.83;;;;;;;11.67;77.51;97287.45;2161712;82;20978;-78
2021/05/14 03:03:44;;;;;;;61.27;38.20;;;;;;;11.65;77.08;97281.39;2161670;82;21354;-80
2021/05/14 03:06:45;;;;;;;59.50;39.77;;;;;;;11.69;77.68;97285.67;2161659;82;20931;-79
2021/05/14 03:09:46;;;;;;;71.73;46.13;;;;;;;11.70;78.22;97288.27;2161877;82;21323;-79
2021/05/14 03:12:47;;;;;;;65.17;41.03;;;;;;;11.72;79.09;97286.93;2161820;82;21038;-80
2021/05/14 03:15:48;;;;;;;65.53;45.23;;;;;;;11.75;79.09;97295.58;2161954;82;20990;-80
2021/05/14 03:18:49;;;;;;;65.97;42.83;;;;;;;11.77;78.91;97296.45;2161859;82;21010;-79
2021/05/14 03:21:51;;;;;;;70.30;46.97;;;;;;;11.81;78.12;97299.88;2162141;82;21006;-79
2021/05/14 03:24:52;;;;;;;75.67;48.87;;;;;;;11.87;79.04;97301.52;2162133;82;20961;-79
2021/05/14 03:27:53;;;;;;;71.70;48.40;;;;;;;11.85;78.88;97302.84;2161868;82;20927;-79
2021/05/14 03:30:54;;;;;;;74.37;46.87;;;;;;;11.85;79.88;97305.47;2161826;82;21295;-79
2021/05/14 03:33:55;;;;;;;78.10;49.43;;;;;;;11.87;79.11;97307.61;2161977;82;20991;-80
2021/05/14 03:36:55;;;;;;;76.67;49.37;;;;;;;11.89;79.09;97314.98;2162079;82;20942;-79
2021/05/14 03:40:02;;;;;;;69.43;46.30;;;;;;;11.97;78.84;97310.92;2162156;82;21307;-80
2021/05/14 03:42:59;;;;;;;77.87;49.63;;;;;;;12.04;79.16;97316.45;2161361;82;21342;-79
2021/05/14 03:46:00;;;;;;;68.65;48.95;;;;;;;12.11;78.85;97316.31;2162100;82;20951;-79
2021/05/14 03:49:01;;;;;;;68.62;47.53;;;;;;;12.20;78.60;97320.55;2162292;82;20930;-80
2021/05/14 03:52:02;;;;;;;73.03;49.70;;;;;;;12.29;77.97;97324.73;2162550;81;21474;-80
2021/05/14 03:55:03;;;;;;;68.85;48.40;;;;;;;12.37;77.97;97331.55;2163486;82;20946;-79
2021/05/14 03:58:04;;;;;;;67.60;46.20;;;;;;;12.41;78.29;97329.29;2161747;82;20931;-80
2021/05/14 04:01:04;;;;;;;64.10;48.55;;;;;;;12.45;77.88;97328.78;2161672;82;20895;-80
2021/05/14 04:04:05;;;;;;;64.15;46.95;;;;;;;12.50;78.10;97331.31;2162249;82;20919;-80
2021/05/14 04:07:07;;;;;;;71.62;49.55;;;;;;;12.52;77.62;97327.77;2162351;82;21319;-81
2021/05/14 04:16:29;;;;;;;63.78;45.48;;;;;;;12.80;76.98;97337.23;2162182;82;20935;-80
2021/05/14 04:19:31;;;;;;;60.28;45.25;;;;;;;12.92;76.60;97341.34;2162300;82;21038;-80
2021/05/14 04:22:34;;;;;;;54.40;42.05;;;;;;;13.06;76.45;97341.49;2141226;82;21354;-80
2021/05/14 04:25:37;;;;;;;61.13;44.60;;;;;;;13.18;76.13;97337.77;2162322;82;21045;-81
2021/05/14 04:28:37;;;;;;;56.88;42.60;;;;;;;13.22;75.50;97339.88;2162026;81;20955;-80
2021/05/14 04:31:38;;;;;;;53.52;40.70;;;;;;;13.26;75.46;97343.70;2162243;82;20947;-80
2021/05/14 04:34:39;;;;;;;57.30;40.63;;;;;;;13.29;75.17;97349.31;2162236;82;21006;-79
2021/05/14 04:37:40;;;;;;;55.98;43.55;;;;;;;13.34;74.94;97344.39;2162451;82;20987;-80
2021/05/14 04:40:43;;;;;;;47.62;39.50;;;;;;;13.38;74.57;97342.11;2141342;82;21276;-81
2021/05/14 04:43:44;;;;;;;56.70;41.28;;;;;;;13.43;74.32;97351.17;2162376;82;20986;-80
2021/05/14 04:46:45;;;;;;;49.65;40.30;;;;;;;13.45;74.06;97357.69;2162158;82;20939;-79
2021/05/14 04:49:46;;;;;;;52.62;39.53;;;;;;;13.45;73.93;97350.69;2162205;82;21034;-80
2021/05/14 04:52:47;;;;;;;53.73;39.27;;;;;;;13.47;73.77;97359.38;2172578;81;21053;-83
2021/05/14 04:55:48;;;;;;;51.18;40.15;;;;;;;13.55;73.75;97361.38;2180372;82;20990;-82
2021/05/14 04:58:49;;;;;;;50.25;40.75;;;;;;;13.65;73.54;97362.88;2179702;82;20914;-82
2021/05/14 05:01:51;;;;;;;51.90;38.50;;;;;;;13.65;72.74;97366.81;2180130;81;20997;-82
2021/05/14 05:04:52;;;;;;;52.10;39.00;;;;;;;13.61;72.73;97369.09;2180495;81;20938;-79
2021/05/14 05:07:53;;;;;;;59.60;42.75;;;;;;;13.66;72.53;97366.36;2180584;81;20957;-80
2021/05/14 05:10:54;;;;;;;58.50;41.95;;;;;;;13.61;72.22;97362.98;2180205;81;20958;-80
2021/05/14 05:13:55;;;;;;;52.50;41.05;;;;;;;13.59;72.35;97365.64;2180109;82;21294;-81
2021/05/14 05:16:56;;;;;;;55.10;43.55;;;;;;;13.65;72.20;97367.26;2180706;82;20926;-81
2021/05/14 05:19:57;;;;;;;57.05;43.08;;;;;;;13.65;72.03;97369.88;2180468;81;21368;-79
2021/05/14 05:23:00;;;;;;;62.33;43.35;;;;;;;13.57;71.90;97369.20;2152942;82;21001;-82
2021/05/14 05:26:01;;;;;;;64.53;45.80;;;;;;;13.58;72.00;97373.55;2179884;82;21005;-80
2021/05/14 05:29:02;;;;;;;61.23;46.53;;;;;;;13.65;72.36;97373.81;2178968;81;20899;-78
2021/05/14 05:32:03;;;;;;;65.28;49.40;;;;;;;13.89;71.70;97377.19;2179236;81;20958;-77
2021/05/14 05:35:04;;;;;;;61.02;46.83;;;;;;;13.85;70.33;97376.81;2179120;81;21263;-79
2021/05/14 05:38:05;;;;;;;60.70;46.37;;;;;;;13.82;70.90;97377.34;2179115;81;20895;-79
2021/05/14 05:41:06;;;;;;;56.02;45.63;;;;;;;14.02;71.52;97386.92;2179509;82;20966;-78
2021/05/14 05:44:07;;;;;;;60.92;47.08;;;;;;;14.57;70.50;97379.81;2179060;81;20950;-79
2021/05/14 05:47:07;;;;;;;61.92;44.23;;;;;;;14.84;68.79;97382.61;2179446;82;20937;-80
2021/05/14 05:50:09;;;;;;;63.63;45.92;;;;;;;14.86;68.37;97381.66;2179847;81;20942;-79
2021/05/14 05:53:10;;;;;;;70.75;47.13;;;;;;;15.09;68.28;97382.77;2179277;81;21386;-79
2021/05/14 05:56:11;;;;;;;61.20;42.80;;;;;;;15.49;66.76;97391.63;2179773;82;21005;-79
2021/05/14 05:59:14;;;;;;;92.45;64.32;;;;;;;15.34;66.68;97395.59;2179702;81;21315;-80
2021/05/14 06:02:15;;;;;;;59.50;44.15;;;;;;;15.36;67.27;97400.80;2179549;81;21009;-80
2021/05/14 06:05:16;;;;;;;60.60;46.00;;;;;;;15.21;66.25;97403.43;2179523;81;21005;-80
2021/05/14 06:08:17;;;;;;;61.05;47.95;;;;;;;15.10;66.57;97410.77;2179655;82;20986;-79
2021/05/14 06:11:18;;;;;;;65.03;46.68;;;;;;;14.90;66.83;97413.97;2179565;82;20974;-80
2021/05/14 06:14:19;;;;;;;66.62;48.40;;;;;;;14.76;67.20;97416.11;2179483;81;21338;-80
2021/05/14 06:17:20;;;;;;;62.15;48.30;;;;;;;14.69;67.98;97425.03;2179613;82;20998;-79
2021/05/14 06:20:24;;;;;;;65.72;47.85;;;;;;;14.74;67.98;97425.77;2179681;81;20922;-81
2021/05/14 06:23:24;;;;;;;64.77;48.50;;;;;;;14.86;67.54;97428.95;2179372;81;20994;-80
2021/05/14 06:26:25;;;;;;;67.75;47.85;;;;;;;14.96;66.80;97430.88;2179609;81;20918;-79
2021/05/14 06:29:26;;;;;;;56.90;46.83;;;;;;;15.44;66.50;97422.47;2179750;82;20914;-79
2021/05/14 06:32:27;;;;;;;58.25;47.15;;;;;;;15.66;65.04;97431.94;2179457;81;21009;-80
2021/05/14 06:35:29;;;;;;;59.13;45.45;;;;;;;15.80;65.09;97437.19;2179136;82;20927;-79
2021/05/14 06:38:30;;;;;;;54.23;42.10;;;;;;;16.19;64.91;97439.45;2179504;82;20934;-79
2021/05/14 06:41:31;;;;;;;65.28;46.25;;;;;;;16.05;63.20;97449.11;2179721;82;20937;-82
2021/05/14 06:44:32;;;;;;;49.38;41.00;;;;;;;15.61;64.37;97454.44;2179443;82;20938;-81
2021/05/14 06:47:33;;;;;;;50.25;40.45;;;;;;;15.54;64.79;97459.41;2179723;81;20977;-83
2021/05/14 06:50:34;;;;;;;60.45;44.70;;;;;;;15.51;64.91;97454.24;2180139;81;20917;-80
2021/05/14 06:53:35;;;;;;;49.40;40.60;;;;;;;15.54;65.12;97458.95;2180148;81;21012;-82
2021/05/14 06:56:36;;;;;;;52.55;39.13;;;;;;;15.46;65.13;97450.89;2179484;81;20977;-79
2021/05/14 06:59:37;;;;;;;49.10;38.30;;;;;;;15.67;65.56;97458.20;2180336;82;20915;-82
2021/05/14 07:02:38;;;;;;;56.70;38.40;;;;;;;15.82;65.04;97459.05;2180445;81;21011;-83
2021/05/14 07:05:39;;;;;;;47.83;36.00;;;;;;;15.87;64.54;97467.66;2179443;82;21357;-81
2021/05/14 07:08:40;;;;;;;45.33;36.93;;;;;;;16.24;64.30;97467.34;2179652;81;20987;-80
2021/05/14 07:11:41;;;;;;;45.52;34.50;;;;;;;16.63;62.32;97470.05;2179316;81;21010;-81
2021/05/14 07:14:42;;;;;;;43.95;35.05;;;;;;;16.85;62.39;97470.61;2179619;81;21013;-80
2021/05/14 07:17:43;;;;;;;46.48;37.53;;;;;;;17.14;60.92;97468.25;2179615;81;20914;-80
2021/05/14 07:20:44;;;;;;;53.60;37.80;;;;;;;16.88;60.21;97470.95;2180020;81;20953;-80
2021/05/14 07:23:45;;;;;;;56.65;38.48;;;;;;;16.76;61.24;97463.48;2179873;82;21077;-79
2021/05/14 07:26:46;;;;;;;52.03;38.98;;;;;;;16.75;60.58;97469.66;2179782;82;20974;-80
2021/05/14 07:29:47;;;;;;;63.55;36.90;;;;;;;16.74;60.92;97470.12;2179795;82;20942;-81
2021/05/14 07:32:48;;;;;;;42.93;33.53;;;;;;;16.80;60.40;97472.54;2180479;82;20962;-82
2021/05/14 07:35:49;;;;;;;43.35;37.55;;;;;;;17.08;60.34;97472.42;2180020;82;20986;-80
2021/05/14 07:38:50;;;;;;;77.82;56.20;;;;;;;17.09;59.41;97480.73;2179807;82;20970;-79
2021/05/14 07:41:51;;;;;;;75.95;55.85;;;;;;;17.06;60.04;97483.48;2180064;82;20938;-80
2021/05/14 07:44:52;;;;;;;47.45;37.08;;;;;;;17.05;60.00;97483.08;2179544;81;20961;-81
2021/05/14 07:47:53;;;;;;;40.10;34.10;;;;;;;17.16;59.32;97484.88;2179409;82;20925;-80
2021/05/14 07:50:54;;;;;;;37.95;32.45;;;;;;;17.53;59.35;97482.23;2179550;81;21043;-78
2021/05/14 07:53:55;;;;;;;40.55;33.08;;;;;;;17.24;58.41;97483.73;2179511;81;21025;-78
2021/05/14 07:56:56;;;;;;;41.35;30.95;;;;;;;17.24;58.41;97483.73;2179914;81;20886;-78
2021/05/14 07:59:57;;;;;;;40.25;31.97;;;;;;;17.34;58.17;97482.06;2179698;82;21381;-80
2021/05/14 08:02:58;;;;;;;45.10;31.85;;;;;;;17.63;58.10;97486.25;2179178;82;20989;-80
2021/05/14 08:05:59;;;;;;;32.23;26.93;;;;;;;17.90;57.77;97488.32;2179562;81;20974;-82
2021/05/14 08:09:05;;;;;;;40.43;30.30;;;;;;;18.30;57.09;97492.91;2180035;81;20942;-82
2021/05/14 08:12:05;;;;;;;33.35;26.97;;;;;;;18.15;57.26;97485.58;2179398;82;20950;-83
2021/05/14 08:15:05;;;;;;;34.00;26.90;;;;;;;18.10;57.04;97484.90;2180365;81;21370;-82
2021/05/14 08:18:06;;;;;;;32.50;28.32;;;;;;;18.40;56.90;97491.62;2180051;81;20968;-82
2021/05/14 08:21:07;;;;;;;35.15;29.15;;;;;;;18.64;56.21;97491.56;2179744;81;20994;-81
2021/05/14 08:24:08;;;;;;;28.80;25.40;;;;;;;18.71;54.94;97494.34;2180159;82;21026;-82
2021/05/14 08:27:09;;;;;;;31.15;26.62;;;;;;;18.86;54.73;97493.69;2180683;81;20946;-83
2021/05/14 08:30:10;;;;;;;32.58;24.98;;;;;;;19.23;54.42;97494.77;2180564;82;21107;-80
2021/05/14 08:33:11;;;;;;;28.90;23.18;;;;;;;19.30;53.75;97505.48;2179779;81;20990;-83
2021/05/14 08:36:12;;;;;;;28.92;22.65;;;;;;;19.29;53.74;97501.11;2179625;82;20938;-82
2021/05/14 08:39:13;;;;;;;30.02;25.90;;;;;;;19.06;53.35;97504.73;2179697;82;21346;-82
2021/05/14 08:42:14;;;;;;;27.05;24.25;;;;;;;19.14;53.31;97503.97;2179441;82;20962;-82
2021/05/14 08:45:15;;;;;;;29.05;22.60;;;;;;;19.13;52.72;97519.45;2179064;81;21342;-82
2021/05/14 08:48:17;;;;;;;27.25;20.88;;;;;;;19.13;53.45;97515.94;2179781;81;20997;-83
2021/05/14 08:51:24;;;;;;;27.82;24.77;;;;;;;19.48;51.84;97519.67;2179621;82;21018;-82
2021/05/14 08:54:20;;;;;;;27.48;21.02;;;;;;;19.32;51.59;97522.14;2178605;81;21509;-84
2021/05/14 08:57:21;;;;;;;26.10;23.30;;;;;;;19.39;52.54;97517.84;2179439;82;21366;-82
2021/05/14 09:00:22;;;;;;;25.48;21.50;;;;;;;19.79;49.89;97524.47;2180018;82;20966;-84
2021/05/14 09:03:24;;;;;;;23.90;20.80;;;;;;;19.80;50.47;97514.27;2179572;81;21377;-83
2021/05/14 09:06:24;;;;;;;28.80;22.30;;;;;;;19.82;51.50;97519.03;2179694;82;20950;-82
2021/05/14 09:09:26;;;;;;;24.67;21.70;;;;;;;20.18;50.87;97510.72;2179917;81;21025;-84
2021/05/14 09:12:26;;;;;;;25.10;21.20;;;;;;;20.83;49.77;97525.25;2179561;81;20926;-81
2021/05/14 09:15:28;;;;;;;30.82;23.32;;;;;;;20.87;48.75;97520.19;2179785;82;20949;-81
2021/05/14 09:18:29;;;;;;;23.27;20.95;;;;;;;20.71;47.90;97527.62;2179653;82;21018;-85
2021/05/14 09:21:30;;;;;;;23.18;20.65;;;;;;;20.33;47.50;97524.55;2179777;81;21034;-82
2021/05/14 09:24:31;;;;;;;28.15;20.60;;;;;;;20.29;48.32;97519.48;2179513;82;21018;-81
2021/05/14 09:27:32;;;;;;;23.80;20.88;;;;;;;20.31;48.33;97533.05;2179854;82;21021;-83
2021/05/14 09:30:35;;;;;;;25.70;21.45;;;;;;;19.89;48.08;97529.73;2179939;81;20894;-84
2021/05/14 09:33:39;;;;;;;29.00;21.25;;;;;;;19.77;49.12;97535.13;2180168;81;20914;-84
2021/05/14 09:36:39;;;;;;;23.35;20.90;;;;;;;20.02;49.59;97530.91;2179192;81;20926;-82
2021/05/14 09:39:40;;;;;;;22.55;18.85;;;;;;;20.33;47.67;97530.32;2179372;81;20998;-81
2021/05/14 09:42:41;;;;;;;23.40;21.10;;;;;;;20.34;47.29;97540.84;2179504;82;20895;-81
2021/05/14 09:45:42;;;;;;;23.07;19.55;;;;;;;20.08;47.21;97548.31;2179535;81;20998;-79
2021/05/14 09:48:43;;;;;;;24.65;20.25;;;;;;;19.91;47.90;97537.14;2179391;82;20927;-78
2021/05/14 09:51:44;;;;;;;26.07;20.00;;;;;;;20.12;48.30;97542.80;2179634;81;20990;-80
2021/05/14 09:54:45;;;;;;;21.73;19.37;;;;;;;20.60;47.38;97533.45;2165237;81;21086;-79
2021/05/14 09:57:50;;;;;;;20.17;17.75;;;;;;;20.65;47.08;97549.53;2161642;82;20926;-79
2021/05/14 10:00:48;;;;;;;20.10;17.75;;;;;;;20.49;47.98;97539.28;2162029;82;21003;-79
2021/05/14 10:03:49;;;;;;;26.73;18.40;;;;;;;20.53;47.11;97546.16;2162105;82;20978;-79
2021/05/14 10:06:50;;;;;;;19.87;17.70;;;;;;;20.64;46.05;97538.53;2162024;82;21280;-78
2021/05/14 10:09:54;;;;;;;42.15;18.85;;;;;;;20.82;46.08;97543.42;2162229;82;20966;-79
2021/05/14 10:12:54;;;;;;;17.60;15.80;;;;;;;20.65;45.71;97543.37;2161641;82;21054;-79
2021/05/14 10:15:55;;;;;;;79.22;20.15;;;;;;;20.76;45.21;97535.74;2161940;82;21319;-79
2021/05/14 10:18:57;;;;;;;127.25;26.42;;;;;;;21.07;45.14;97533.77;2162010;82;20907;-78
2021/05/14 10:21:58;;;;;;;19.57;14.68;;;;;;;21.32;46.58;97530.73;2161960;82;20954;-78
2021/05/14 10:24:59;;;;;;;19.02;14.98;;;;;;;21.89;44.04;97527.27;2161924;82;21012;-79
2021/05/14 10:28:01;;;;;;;18.85;17.00;;;;;;;21.60;44.12;97530.14;2162046;82;21042;-80
2021/05/14 10:31:05;;;;;;;20.48;14.53;;;;;;;21.24;44.47;97533.78;2161953;82;21363;-79
2021/05/14 10:34:06;;;;;;;18.82;13.80;;;;;;;21.03;43.75;97540.63;2161985;82;21030;-78
2021/05/14 10:37:07;;;;;;;19.50;13.28;;;;;;;21.05;44.52;97540.08;2162195;82;20959;-78
2021/05/14 10:40:08;;;;;;;19.25;14.15;;;;;;;21.44;45.80;97526.58;2162211;82;21010;-79
2021/05/14 10:43:10;;;;;;;23.57;14.00;;;;;;;21.87;42.25;97521.19;2162352;82;21291;-78
2021/05/14 10:46:11;;;;;;;44.40;14.93;;;;;;;21.65;41.95;97535.20;2162001;82;21030;-81
2021/05/14 10:49:12;;;;;;;15.75;13.35;;;;;;;21.24;43.34;97528.48;2161966;82;20907;-78
2021/05/14 10:52:13;;;;;;;16.70;14.03;;;;;;;21.32;44.68;97530.73;2161843;82;20978;-78
2021/05/14 10:55:14;;;;;;;15.05;13.58;;;;;;;21.41;42.36;97534.23;2177477;81;20989;-79
2021/05/14 10:58:15;;;;;;;20.57;13.80;;;;;;;21.34;43.41;97535.50;2179384;81;20958;-79
2021/05/14 11:01:16;;;;;;;18.52;14.55;;;;;;;21.79;43.82;97534.89;2179867;82;20911;-81
2021/05/14 11:04:17;;;;;;;15.78;13.83;;;;;;;22.01;42.63;97539.03;2179802;81;20962;-79
2021/05/14 11:07:18;;;;;;;21.30;13.70;;;;;;;22.25;42.04;97524.42;2180247;82;20946;-80
2021/05/14 11:10:20;;;;;;;15.28;12.93;;;;;;;22.38;42.75;97537.88;2179789;81;21311;-81
2021/05/14 11:13:21;;;;;;;16.32;13.30;;;;;;;22.05;43.17;97539.28;2179595;81;20890;-82
2021/05/14 11:16:22;;;;;;;18.77;13.15;;;;;;;21.64;43.15;97542.31;2179293;81;20982;-82
2021/05/14 11:19:23;;;;;;;17.07;12.37;;;;;;;21.32;43.35;97547.13;2179775;82;20930;-82
2021/05/14 11:22:24;;;;;;;13.28;11.48;;;;;;;20.86;44.33;97548.97;2179423;82;20978;-76
2021/05/14 11:25:24;;;;;;;15.55;13.00;;;;;;;20.57;45.28;97550.38;2179285;81;21013;-81
2021/05/14 11:28:26;;;;;;;15.85;13.20;;;;;;;20.50;46.03;97552.07;2179386;82;20973;-81
2021/05/14 11:31:27;;;;;;;19.20;11.80;;;;;;;20.22;46.02;97552.03;2179901;82;20965;-81
2021/05/14 11:34:28;;;;;;;16.37;13.13;;;;;;;20.08;47.24;97559.77;2179733;81;20875;-81
2021/05/14 11:37:29;;;;;;;18.90;13.78;;;;;;;19.85;47.90;97567.41;2179429;82;21369;-79
2021/05/14 11:40:30;;;;;;;20.90;13.75;;;;;;;19.71;47.92;97575.13;2180021;82;21016;-80
2021/05/14 11:43:30;;;;;;;20.82;13.90;;;;;;;19.67;47.72;97581.02;2179496;82;20942;-77
2021/05/14 11:46:32;;;;;;;18.67;14.55;;;;;;;19.62;47.56;97575.07;2179650;81;21010;-80
2021/05/14 11:49:33;;;;;;;16.62;13.08;;;;;;;19.63;47.78;97579.44;2179593;82;20927;-82
2021/05/14 11:52:35;;;;;;;17.45;14.18;;;;;;;19.66;47.75;97585.05;2179793;81;20926;-80
2021/05/14 11:55:35;;;;;;;19.00;11.90;;;;;;;19.69;47.93;97585.78;2179569;82;21405;-80
2021/05/14 11:58:39;;;;;;;18.07;12.18;;;;;;;19.84;47.74;97584.70;2180003;82;21009;-80
2021/05/14 12:01:40;;;;;;;14.47;11.93;;;;;;;19.92;47.66;97582.56;2179304;81;21033;-81
2021/05/14 12:04:41;;;;;;;17.67;12.35;;;;;;;19.97;47.31;97586.75;2179261;81;20926;-80
2021/05/14 12:07:43;;;;;;;13.80;11.38;;;;;;;19.99;46.90;97595.95;2178997;82;20938;-80
2021/05/14 12:10:44;;;;;;;16.85;10.75;;;;;;;19.95;47.28;97584.64;2179298;81;21013;-82
2021/05/14 12:13:45;;;;;;;12.75;11.43;;;;;;;19.94;46.79;97591.30;2179449;81;20993;-82
2021/05/14 12:16:46;;;;;;;15.30;11.12;;;;;;;19.96;46.98;97597.41;2179328;81;20918;-82
2021/05/14 12:19:47;;;;;;;18.55;10.30;;;;;;;20.01;47.06;97590.12;2179235;82;20950;-82
2021/05/14 12:22:49;;;;;;;16.40;9.95;;;;;;;20.18;46.99;97594.17;2179187;81;20974;-80
2021/05/14 12:25:50;;;;;;;11.15;9.98;;;;;;;20.52;46.49;97600.09;2179408;82;21040;-81
2021/05/14 12:28:52;;;;;;;10.10;9.10;;;;;;;20.72;45.75;97601.79;2179743;82;21005;-80
2021/05/14 12:31:52;;;;;;;11.33;9.43;;;;;;;21.01;45.95;97600.86;2179449;82;21343;-79
2021/05/14 12:34:53;;;;;;;14.10;8.95;;;;;;;21.08;45.30;97604.45;2179447;82;21013;-82
2021/05/14 12:37:54;;;;;;;11.28;9.93;;;;;;;21.12;45.29;97603.84;2179150;82;20918;-82
2021/05/14 12:40:56;;;;;;;10.25;9.05;;;;;;;21.04;45.21;97610.85;2179286;82;20991;-81
2021/05/14 12:43:56;;;;;;;16.57;10.25;;;;;;;20.89;46.02;97605.84;2179438;82;21322;-80
2021/05/14 12:46:58;;;;;;;11.45;10.18;;;;;;;20.94;46.09;97605.14;2179414;81;21354;-82
2021/05/14 12:50:02;;;;;;;9.93;8.70;;;;;;;20.84;46.43;97610.51;2179279;81;20958;-79
2021/05/14 12:53:02;;;;;;;10.88;9.73;;;;;;;20.76;46.62;97617.09;2178951;82;21335;-80
2021/05/14 12:56:03;;;;;;;15.68;9.73;;;;;;;20.54;46.86;97611.95;2162226;82;21025;-80
2021/05/14 12:59:04;;;;;;;14.60;9.10;;;;;;;20.48;47.41;97616.22;2161680;82;21375;-80
2021/05/14 13:02:05;;;;;;;11.30;9.20;;;;;;;20.34;47.42;97616.37;2161781;82;20939;-81
2021/05/14 13:05:06;;;;;;;10.25;8.80;;;;;;;20.58;47.17;97624.13;2161952;82;21408;-80
2021/05/14 13:08:07;;;;;;;10.53;8.53;;;;;;;21.14;46.72;97617.89;2161743;82;20950;-79
2021/05/14 13:11:12;;;;;;;12.47;8.88;;;;;;;21.30;45.48;97622.84;2162155;82;21011;-79
2021/05/14 13:14:12;;;;;;;11.73;8.95;;;;;;;21.31;45.43;97633.86;2161495;82;20990;-82
2021/05/14 13:17:13;;;;;;;11.80;7.90;;;;;;;21.07;45.05;97636.38;2161871;82;21482;-82
2021/05/14 13:20:14;;;;;;;14.13;8.53;;;;;;;20.88;45.10;97641.25;2161817;82;20982;-81
2021/05/14 13:23:15;;;;;;;17.80;8.48;;;;;;;20.75;45.64;97640.09;2162160;82;21331;-82
2021/05/14 13:26:17;;;;;;;16.77;8.68;;;;;;;20.72;45.76;97641.56;2162061;82;21010;-81
2021/05/14 13:29:18;;;;;;;10.28;8.55;;;;;;;20.51;45.59;97643.91;2162084;82;20899;-83
2021/05/14 13:32:19;;;;;;;14.73;8.35;;;;;;;20.40;45.88;97651.50;2162038;82;20981;-81
2021/05/14 13:35:20;;;;;;;12.55;7.92;;;;;;;20.50;45.54;97655.45;2161959;82;20939;-81
2021/05/14 13:38:20;;;;;;;13.05;8.60;;;;;;;20.49;45.19;97649.28;2162058;82;20977;-81
2021/05/14 13:41:22;;;;;;;15.90;9.15;;;;;;;20.46;45.74;97665.33;2162052;82;20935;-82
2021/05/14 13:44:23;;;;;;;10.50;7.80;;;;;;;20.48;45.23;97663.47;2161753;82;21014;-81
2021/05/14 13:47:25;;;;;;;10.93;8.15;;;;;;;20.44;45.32;97665.01;2161959;82;21303;-81
2021/05/14 13:50:25;;;;;;;14.95;8.23;;;;;;;20.40;44.98;97664.75;2161931;82;20947;-79
2021/05/14 13:53:27;;;;;;;16.62;8.80;;;;;;;20.48;45.45;97663.94;2161989;81;21014;-80
2021/05/14 13:56:28;;;;;;;13.90;8.05;;;;;;;20.69;44.67;97665.58;2172063;82;21362;-79
2021/05/14 13:59:29;;;;;;;9.38;8.43;;;;;;;20.67;44.42;97664.79;2172149;82;20998;-78
2021/05/14 14:02:30;;;;;;;13.28;10.93;;;;;;;20.67;44.24;97660.81;2171849;82;20934;-81